sensor_id;sensor_type;location;lat;lon;timestamp;pressure;altitude;pressure_sealevel;temperature;humidity
13593;BME280;6867;50.998;4.250;2022-11-24T00:00:28;100003.28;;;11.19;73.81
13593;BME280;6867;50.998;4.250;2022-11-24T00:02:56;100001.84;;;11.05;73.94
13593;BME280;6867;50.998;4.250;2022-11-24T00:05:24;100003.03;;;11.09;73.77
13593;BME280;6867;50.998;4.250;2022-11-24T00:07:51;100016.16;;;11.17;73.75
13593;BME280;6867;50.998;4.250;2022-11-24T00:10:17;100025.44;;;11.03;73.98
13593;BME280;6867;50.998;4.250;2022-11-24T00:12:44;100026.56;;;11.25;73.84
13593;BME280;6867;50.998;4.250;2022-11-24T00:15:11;100014.91;;;11.43;73.31
13593;BME280;6867;50.998;4.250;2022-11-24T00:17:38;100021.09;;;11.43;73.43
13593;BME280;6867;50.998;4.250;2022-11-24T00:20:07;100026.56;;;11.25;73.38
13593;BME280;6867;50.998;4.250;2022-11-24T00:22:34;100019.69;;;11.41;73.50
13593;BME280;6867;50.998;4.250;2022-11-24T00:25:01;100025.78;;;11.48;73.29
13593;BME280;6867;50.998;4.250;2022-11-24T00:27:27;100019.69;;;11.41;73.28
13593;BME280;6867;50.998;4.250;2022-11-24T00:29:54;100025.69;;;11.55;73.06
13593;BME280;6867;50.998;4.250;2022-11-24T00:32:21;100014.31;;;11.53;72.75
13593;BME280;6867;50.998;4.250;2022-11-24T00:34:48;100011.75;;;11.58;73.01
13593;BME280;6867;50.998;4.250;2022-11-24T00:37:16;100019.34;;;11.49;72.88
13593;BME280;6867;50.998;4.250;2022-11-24T00:39:43;100029.19;;;11.55;72.79
13593;BME280;6867;50.998;4.250;2022-11-24T00:42:09;100011.63;;;11.53;72.45
13593;BME280;6867;50.998;4.250;2022-11-24T00:44:36;100016.69;;;11.61;72.64
13593;BME280;6867;50.998;4.250;2022-11-24T00:47:05;100024.06;;;11.54;72.82
13593;BME280;6867;50.998;4.250;2022-11-24T00:49:32;100022.53;;;11.46;73.27
13593;BME280;6867;50.998;4.250;2022-11-24T00:52:00;100034.88;;;11.35;73.22
13593;BME280;6867;50.998;4.250;2022-11-24T00:54:28;100040.00;;;11.25;73.94
13593;BME280;6867;50.998;4.250;2022-11-24T00:56:55;100033.84;;;11.48;73.62
13593;BME280;6867;50.998;4.250;2022-11-24T00:59:21;100033.50;;;11.44;73.34
13593;BME280;6867;50.998;4.250;2022-11-24T01:01:48;100037.81;;;11.34;73.53
13593;BME280;6867;50.998;4.250;2022-11-24T01:04:14;100042.81;;;11.30;74.22
13593;BME280;6867;50.998;4.250;2022-11-24T01:06:42;100054.84;;;11.28;73.90
13593;BME280;6867;50.998;4.250;2022-11-24T01:09:09;100053.22;;;11.27;73.64
13593;BME280;6867;50.998;4.250;2022-11-24T01:11:37;100060.00;;;11.29;74.07
13593;BME280;6867;50.998;4.250;2022-11-24T01:14:23;100058.47;;;11.21;73.70
13593;BME280;6867;50.998;4.250;2022-11-24T01:16:50;100063.56;;;11.11;74.11
13593;BME280;6867;50.998;4.250;2022-11-24T01:19:17;100059.66;;;11.26;73.66
13593;BME280;6867;50.998;4.250;2022-11-24T01:21:43;100061.88;;;11.29;73.81
13593;BME280;6867;50.998;4.250;2022-11-24T01:24:10;100061.00;;;11.46;73.62
13593;BME280;6867;50.998;4.250;2022-11-24T01:26:38;100056.66;;;11.45;73.47
13593;BME280;6867;50.998;4.250;2022-11-24T01:29:05;100057.00;;;11.37;73.75
13593;BME280;6867;50.998;4.250;2022-11-24T01:31:32;100042.53;;;11.50;73.45
13593;BME280;6867;50.998;4.250;2022-11-24T01:33:58;100045.91;;;11.45;73.49
13593;BME280;6867;50.998;4.250;2022-11-24T01:36:25;100065.19;;;11.42;73.36
13593;BME280;6867;50.998;4.250;2022-11-24T01:38:52;100066.56;;;11.33;73.65
13593;BME280;6867;50.998;4.250;2022-11-24T01:41:20;100092.81;;;11.50;73.61
13593;BME280;6867;50.998;4.250;2022-11-24T01:43:50;100083.81;;;11.56;73.49
13593;BME280;6867;50.998;4.250;2022-11-24T01:46:20;100075.41;;;11.64;73.50
13593;BME280;6867;50.998;4.250;2022-11-24T01:48:51;100078.66;;;11.54;73.41
13593;BME280;6867;50.998;4.250;2022-11-24T01:51:23;100091.09;;;11.67;73.29
13593;BME280;6867;50.998;4.250;2022-11-24T01:53:54;100077.88;;;11.77;73.26
13593;BME280;6867;50.998;4.250;2022-11-24T01:56:23;100085.13;;;11.77;73.05
13593;BME280;6867;50.998;4.250;2022-11-24T01:58:54;100079.84;;;11.70;72.90
13593;BME280;6867;50.998;4.250;2022-11-24T02:01:21;100082.78;;;11.68;72.82
13593;BME280;6867;50.998;4.250;2022-11-24T02:03:48;100092.84;;;11.73;72.92
13593;BME280;6867;50.998;4.250;2022-11-24T02:06:20;100095.88;;;11.65;72.68
13593;BME280;6867;50.998;4.250;2022-11-24T02:08:50;100098.47;;;11.71;72.74
13593;BME280;6867;50.998;4.250;2022-11-24T02:11:22;100099.25;;;11.60;72.65
13593;BME280;6867;50.998;4.250;2022-11-24T02:13:52;100101.38;;;11.70;72.43
13593;BME280;6867;50.998;4.250;2022-11-24T02:16:19;100103.38;;;11.75;72.39
13593;BME280;6867;50.998;4.250;2022-11-24T02:18:46;100097.53;;;11.78;72.16
13593;BME280;6867;50.998;4.250;2022-11-24T02:21:14;100102.38;;;11.87;71.81
13593;BME280;6867;50.998;4.250;2022-11-24T02:23:46;100105.75;;;11.83;72.00
13593;BME280;6867;50.998;4.250;2022-11-24T02:26:33;100103.69;;;11.96;71.71
13593;BME280;6867;50.998;4.250;2022-11-24T02:29:04;100098.84;;;11.99;71.27
13593;BME280;6867;50.998;4.250;2022-11-24T02:31:31;100105.03;;;11.76;71.44
13593;BME280;6867;50.998;4.250;2022-11-24T02:33:58;100090.44;;;11.83;70.88
13593;BME280;6867;50.998;4.250;2022-11-24T02:36:25;100093.88;;;11.60;70.83
13593;BME280;6867;50.998;4.250;2022-11-24T02:38:51;100061.16;;;11.75;69.60
13593;BME280;6867;50.998;4.250;2022-11-24T02:41:20;100061.66;;;11.84;69.05
13593;BME280;6867;50.998;4.250;2022-11-24T02:43:53;100057.16;;;11.66;69.29
13593;BME280;6867;50.998;4.250;2022-11-24T02:46:20;100077.38;;;11.57;69.90
13593;BME280;6867;50.998;4.250;2022-11-24T02:48:47;100091.09;;;11.67;70.11
13593;BME280;6867;50.998;4.250;2022-11-24T02:51:14;100087.56;;;11.55;70.07
13593;BME280;6867;50.998;4.250;2022-11-24T02:53:40;100081.78;;;11.39;70.04
13593;BME280;6867;50.998;4.250;2022-11-24T02:56:07;100083.78;;;11.44;69.46
13593;BME280;6867;50.998;4.250;2022-11-24T02:58:36;100094.78;;;11.42;69.63
13593;BME280;6867;50.998;4.250;2022-11-24T03:01:04;100099.84;;;11.20;69.83
13593;BME280;6867;50.998;4.250;2022-11-24T03:03:31;100098.00;;;11.03;69.70
13593;BME280;6867;50.998;4.250;2022-11-24T03:06:00;100094.22;;;10.92;70.34
13593;BME280;6867;50.998;4.250;2022-11-24T03:08:27;100102.72;;;10.89;70.13
13593;BME280;6867;50.998;4.250;2022-11-24T03:10:54;100099.59;;;10.92;69.86
13593;BME280;6867;50.998;4.250;2022-11-24T03:13:20;100099.41;;;11.05;69.81
13593;BME280;6867;50.998;4.250;2022-11-24T03:15:47;100088.72;;;11.17;69.46
13593;BME280;6867;50.998;4.250;2022-11-24T03:18:15;100093.22;;;11.05;69.62
13593;BME280;6867;50.998;4.250;2022-11-24T03:20:42;100101.16;;;11.00;69.61
13593;BME280;6867;50.998;4.250;2022-11-24T03:23:09;100103.03;;;10.81;69.95
13593;BME280;6867;50.998;4.250;2022-11-24T03:25:35;100117.28;;;10.81;69.96
13593;BME280;6867;50.998;4.250;2022-11-24T03:28:02;100133.84;;;10.96;70.25
13593;BME280;6867;50.998;4.250;2022-11-24T03:30:29;100136.03;;;10.88;70.99
13593;BME280;6867;50.998;4.250;2022-11-24T03:32:56;100143.09;;;11.01;70.79
13593;BME280;6867;50.998;4.250;2022-11-24T03:35:24;100150.28;;;10.88;71.16
13593;BME280;6867;50.998;4.250;2022-11-24T03:37:51;100158.41;;;10.82;71.59
13593;BME280;6867;50.998;4.250;2022-11-24T03:40:17;100179.22;;;10.68;72.04
13593;BME280;6867;50.998;4.250;2022-11-24T03:42:44;100170.69;;;10.53;72.12
13593;BME280;6867;50.998;4.250;2022-11-24T03:45:11;100186.50;;;10.42;73.13
13593;BME280;6867;50.998;4.250;2022-11-24T03:47:37;100201.41;;;10.38;73.58
13593;BME280;6867;50.998;4.250;2022-11-24T03:50:04;100198.72;;;10.38;73.76
13593;BME280;6867;50.998;4.250;2022-11-24T03:52:33;100201.19;;;10.40;74.38
13593;BME280;6867;50.998;4.250;2022-11-24T03:54:59;100215.09;;;10.30;74.18
13593;BME280;6867;50.998;4.250;2022-11-24T03:57:26;100213.00;;;10.32;74.03
13593;BME280;6867;50.998;4.250;2022-11-24T03:59:53;100216.41;;;10.21;74.73
13593;BME280;6867;50.998;4.250;2022-11-24T04:02:19;100219.84;;;10.28;74.86
13593;BME280;6867;50.998;4.250;2022-11-24T04:04:46;100219.06;;;10.21;74.30
13593;BME280;6867;50.998;4.250;2022-11-24T04:07:16;100231.88;;;10.19;74.61
13593;BME280;6867;50.998;4.250;2022-11-24T04:09:45;100226.78;;;10.11;75.67
13593;BME280;6867;50.998;4.250;2022-11-24T04:12:11;100225.56;;;10.07;75.73
13593;BME280;6867;50.998;4.250;2022-11-24T04:14:55;100219.72;;;9.91;74.99
13593;BME280;6867;50.998;4.250;2022-11-24T04:17:22;100215.56;;;10.20;74.48
13593;BME280;6867;50.998;4.250;2022-11-24T04:19:48;100233.84;;;10.05;75.56
13593;BME280;6867;50.998;4.250;2022-11-24T04:22:15;100235.03;;;10.16;75.13
13593;BME280;6867;50.998;4.250;2022-11-24T04:24:42;100224.63;;;10.19;75.26
13593;BME280;6867;50.998;4.250;2022-11-24T04:27:10;100231.50;;;10.15;74.67
13593;BME280;6867;50.998;4.250;2022-11-24T04:29:37;100232.41;;;10.03;74.59
13593;BME280;6867;50.998;4.250;2022-11-24T04:32:04;100233.41;;;10.08;74.71
13593;BME280;6867;50.998;4.250;2022-11-24T04:34:31;100245.56;;;10.11;74.55
13593;BME280;6867;50.998;4.250;2022-11-24T04:36:57;100252.00;;;10.03;74.75
13593;BME280;6867;50.998;4.250;2022-11-24T04:39:24;100248.75;;;9.94;75.27
13593;BME280;6867;50.998;4.250;2022-11-24T04:41:51;100246.44;;;10.05;74.56
13593;BME280;6867;50.998;4.250;2022-11-24T04:44:19;100254.50;;;10.05;74.51
13593;BME280;6867;50.998;4.250;2022-11-24T04:46:45;100252.63;;;10.05;74.61
13593;BME280;6867;50.998;4.250;2022-11-24T04:49:12;100262.97;;;10.02;73.83
13593;BME280;6867;50.998;4.250;2022-11-24T04:51:39;100262.75;;;10.03;74.78
13593;BME280;6867;50.998;4.250;2022-11-24T04:54:08;100259.50;;;9.94;73.88
13593;BME280;6867;50.998;4.250;2022-11-24T04:56:35;100278.06;;;9.96;74.63
13593;BME280;6867;50.998;4.250;2022-11-24T04:59:01;100284.22;;;10.03;74.18
13593;BME280;6867;50.998;4.250;2022-11-24T05:01:29;100294.56;;;10.00;74.08
13593;BME280;6867;50.998;4.250;2022-11-24T05:03:56;100291.66;;;10.01;74.05
13593;BME280;6867;50.998;4.250;2022-11-24T05:06:24;100291.41;;;10.09;74.18
13593;BME280;6867;50.998;4.250;2022-11-24T05:08:51;100303.03;;;9.96;73.60
13593;BME280;6867;50.998;4.250;2022-11-24T05:11:20;100323.28;;;9.99;74.18
13593;BME280;6867;50.998;4.250;2022-11-24T05:13:51;100320.84;;;9.84;74.54
13593;BME280;6867;50.998;4.250;2022-11-24T05:16:18;100328.28;;;9.82;73.92
13593;BME280;6867;50.998;4.250;2022-11-24T05:18:46;100330.53;;;9.92;74.23
13593;BME280;6867;50.998;4.250;2022-11-24T05:21:13;100325.34;;;9.90;74.40
13593;BME280;6867;50.998;4.250;2022-11-24T05:23:39;100340.53;;;9.65;74.33
13593;BME280;6867;50.998;4.250;2022-11-24T05:26:06;100335.56;;;9.75;75.12
13593;BME280;6867;50.998;4.250;2022-11-24T05:28:33;100353.91;;;9.71;74.89
13593;BME280;6867;50.998;4.250;2022-11-24T05:31:00;100351.06;;;9.60;74.67
13593;BME280;6867;50.998;4.250;2022-11-24T05:33:28;100372.94;;;9.63;76.32
13593;BME280;6867;50.998;4.250;2022-11-24T05:36:01;100378.06;;;9.65;76.14
13593;BME280;6867;50.998;4.250;2022-11-24T05:38:28;100375.97;;;9.73;76.17
13593;BME280;6867;50.998;4.250;2022-11-24T05:40:59;100380.91;;;9.83;75.56
13593;BME280;6867;50.998;4.250;2022-11-24T05:43:25;100375.16;;;9.80;75.95
13593;BME280;6867;50.998;4.250;2022-11-24T05:45:52;100382.19;;;9.74;76.05
13593;BME280;6867;50.998;4.250;2022-11-24T05:48:19;100387.56;;;9.67;76.77
13593;BME280;6867;50.998;4.250;2022-11-24T05:50:53;100409.38;;;9.78;76.50
13593;BME280;6867;50.998;4.250;2022-11-24T05:53:21;100402.38;;;9.77;76.57
13593;BME280;6867;50.998;4.250;2022-11-24T05:55:48;100414.59;;;9.66;77.09
13593;BME280;6867;50.998;4.250;2022-11-24T05:58:14;100413.97;;;9.70;76.41
13593;BME280;6867;50.998;4.250;2022-11-24T06:00:41;100418.94;;;9.67;77.12
13593;BME280;6867;50.998;4.250;2022-11-24T06:03:09;100436.84;;;9.73;77.68
13593;BME280;6867;50.998;4.250;2022-11-24T06:05:36;100421.34;;;9.82;76.39
13593;BME280;6867;50.998;4.250;2022-11-24T06:08:04;100429.22;;;9.77;76.55
13593;BME280;6867;50.998;4.250;2022-11-24T06:10:32;100445.13;;;9.65;77.23
13593;BME280;6867;50.998;4.250;2022-11-24T06:13:03;100451.09;;;9.67;77.49
13593;BME280;6867;50.998;4.250;2022-11-24T06:15:30;100445.56;;;9.62;76.79
13593;BME280;6867;50.998;4.250;2022-11-24T06:17:57;100448.88;;;9.57;78.29
13593;BME280;6867;50.998;4.250;2022-11-24T06:20:23;100444.94;;;9.46;76.98
13593;BME280;6867;50.998;4.250;2022-11-24T06:22:50;100452.56;;;9.56;76.70
13593;BME280;6867;50.998;4.250;2022-11-24T06:25:17;100461.00;;;9.60;77.52
13593;BME280;6867;50.998;4.250;2022-11-24T06:27:45;100455.47;;;9.55;77.19
13593;BME280;6867;50.998;4.250;2022-11-24T06:30:13;100476.69;;;9.56;77.63
13593;BME280;6867;50.998;4.250;2022-11-24T06:32:40;100474.00;;;9.63;77.53
13593;BME280;6867;50.998;4.250;2022-11-24T06:35:10;100485.97;;;9.67;77.46
13593;BME280;6867;50.998;4.250;2022-11-24T06:37:36;100475.88;;;9.56;76.93
13593;BME280;6867;50.998;4.250;2022-11-24T06:40:04;100479.19;;;9.58;76.82
13593;BME280;6867;50.998;4.250;2022-11-24T06:42:33;100484.31;;;9.53;77.75
13593;BME280;6867;50.998;4.250;2022-11-24T06:45:01;100484.13;;;9.54;76.46
13593;BME280;6867;50.998;4.250;2022-11-24T06:47:27;100501.84;;;9.48;77.17
13593;BME280;6867;50.998;4.250;2022-11-24T06:49:54;100502.91;;;9.47;77.93
13593;BME280;6867;50.998;4.250;2022-11-24T06:52:20;100500.63;;;9.44;77.16
13593;BME280;6867;50.998;4.250;2022-11-24T06:54:47;100517.75;;;9.43;77.47
13593;BME280;6867;50.998;4.250;2022-11-24T06:57:14;100531.56;;;9.20;78.21
13593;BME280;6867;50.998;4.250;2022-11-24T06:59:40;100546.63;;;9.35;78.36
13593;BME280;6867;50.998;4.250;2022-11-24T07:02:09;100553.44;;;9.37;79.41
13593;BME280;6867;50.998;4.250;2022-11-24T07:04:36;100541.88;;;9.43;78.67
13593;BME280;6867;50.998;4.250;2022-11-24T07:07:02;100552.41;;;9.38;79.33
13593;BME280;6867;50.998;4.250;2022-11-24T07:09:29;100548.69;;;9.39;78.40
13593;BME280;6867;50.998;4.250;2022-11-24T07:11:55;100559.63;;;9.38;78.51
13593;BME280;6867;50.998;4.250;2022-11-24T07:14:22;100550.94;;;9.42;78.45
13593;BME280;6867;50.998;4.250;2022-11-24T07:16:49;100553.59;;;9.22;79.24
13593;BME280;6867;50.998;4.250;2022-11-24T07:19:17;100559.19;;;9.21;79.60
13593;BME280;6867;50.998;4.250;2022-11-24T07:21:43;100578.19;;;9.33;79.36
13593;BME280;6867;50.998;4.250;2022-11-24T07:24:10;100584.97;;;9.35;79.44
13593;BME280;6867;50.998;4.250;2022-11-24T07:26:37;100582.31;;;9.42;78.61
13593;BME280;6867;50.998;4.250;2022-11-24T07:29:04;100586.22;;;9.39;79.26
13593;BME280;6867;50.998;4.250;2022-11-24T07:31:31;100586.84;;;9.41;78.87
13593;BME280;6867;50.998;4.250;2022-11-24T07:33:58;100595.50;;;9.37;79.45
13593;BME280;6867;50.998;4.250;2022-11-24T07:36:25;100598.81;;;9.45;79.09
13593;BME280;6867;50.998;4.250;2022-11-24T07:38:52;100601.50;;;9.45;79.56
13593;BME280;6867;50.998;4.250;2022-11-24T07:41:19;100611.38;;;9.38;80.00
13593;BME280;6867;50.998;4.250;2022-11-24T07:43:47;100611.41;;;9.45;79.35
13593;BME280;6867;50.998;4.250;2022-11-24T07:46:16;100615.94;;;9.51;79.90
13593;BME280;6867;50.998;4.250;2022-11-24T07:48:43;100630.78;;;9.47;79.25
13593;BME280;6867;50.998;4.250;2022-11-24T07:51:10;100617.78;;;9.51;78.69
13593;BME280;6867;50.998;4.250;2022-11-24T07:53:38;100628.69;;;9.42;79.47
13593;BME280;6867;50.998;4.250;2022-11-24T07:56:06;100642.97;;;9.50;79.82
13593;BME280;6867;50.998;4.250;2022-11-24T07:58:35;100636.56;;;9.64;79.17
13593;BME280;6867;50.998;4.250;2022-11-24T08:01:10;100639.28;;;9.70;78.78
13593;BME280;6867;50.998;4.250;2022-11-24T08:03:37;100646.50;;;9.70;78.77
13593;BME280;6867;50.998;4.250;2022-11-24T08:06:03;100654.13;;;9.66;78.56
13593;BME280;6867;50.998;4.250;2022-11-24T08:08:30;100655.78;;;9.74;78.30
13593;BME280;6867;50.998;4.250;2022-11-24T08:11:03;100673.31;;;9.77;78.68
13593;BME280;6867;50.998;4.250;2022-11-24T08:13:30;100674.97;;;9.84;79.29
13593;BME280;6867;50.998;4.250;2022-11-24T08:15:56;100671.66;;;9.82;78.40
13593;BME280;6867;50.998;4.250;2022-11-24T08:18:23;100680.53;;;9.89;78.54
13593;BME280;6867;50.998;4.250;2022-11-24T08:20:50;100684.28;;;9.95;78.83
13593;BME280;6867;50.998;4.250;2022-11-24T08:23:16;100685.72;;;9.97;78.55
13593;BME280;6867;50.998;4.250;2022-11-24T08:25:43;100685.28;;;9.94;78.40
13593;BME280;6867;50.998;4.250;2022-11-24T08:28:11;100689.22;;;10.05;78.20
13593;BME280;6867;50.998;4.250;2022-11-24T08:30:38;100700.59;;;10.13;77.79
13593;BME280;6867;50.998;4.250;2022-11-24T08:33:05;100693.13;;;10.15;77.58
13593;BME280;6867;50.998;4.250;2022-11-24T08:35:34;100704.09;;;10.20;78.46
13593;BME280;6867;50.998;4.250;2022-11-24T08:38:01;100702.25;;;10.21;77.66
13593;BME280;6867;50.998;4.250;2022-11-24T08:40:28;100703.06;;;10.28;77.94
13593;BME280;6867;50.998;4.250;2022-11-24T08:42:56;100696.47;;;10.37;76.95
13593;BME280;6867;50.998;4.250;2022-11-24T08:45:25;100707.00;;;10.45;77.21
13593;BME280;6867;50.998;4.250;2022-11-24T08:47:52;100701.44;;;10.54;76.74
13593;BME280;6867;50.998;4.250;2022-11-24T08:50:19;100702.03;;;10.62;76.53
13593;BME280;6867;50.998;4.250;2022-11-24T08:52:46;100703.03;;;10.68;76.64
13593;BME280;6867;50.998;4.250;2022-11-24T08:55:13;100709.25;;;10.75;76.15
13593;BME280;6867;50.998;4.250;2022-11-24T08:57:40;100705.91;;;10.73;75.97
13593;BME280;6867;50.998;4.250;2022-11-24T09:00:08;100712.94;;;10.81;76.03
13593;BME280;6867;50.998;4.250;2022-11-24T09:02:36;100704.69;;;10.69;75.77
13593;BME280;6867;50.998;4.250;2022-11-24T09:05:03;100718.53;;;10.72;75.82
13593;BME280;6867;50.998;4.250;2022-11-24T09:07:30;100723.03;;;10.92;75.66
13593;BME280;6867;50.998;4.250;2022-11-24T09:09:57;100716.63;;;10.86;75.60
13593;BME280;6867;50.998;4.250;2022-11-24T09:12:23;100729.25;;;10.92;75.46
13593;BME280;6867;50.998;4.250;2022-11-24T09:14:50;100719.72;;;10.96;75.76
13593;BME280;6867;50.998;4.250;2022-11-24T09:17:16;100730.84;;;11.07;75.42
13593;BME280;6867;50.998;4.250;2022-11-24T09:19:45;100719.00;;;11.21;74.82
13593;BME280;6867;50.998;4.250;2022-11-24T09:22:12;100717.31;;;11.27;74.50
13593;BME280;6867;50.998;4.250;2022-11-24T09:24:39;100725.22;;;11.21;74.63
13593;BME280;6867;50.998;4.250;2022-11-24T09:27:05;100716.31;;;11.21;73.83
13593;BME280;6867;50.998;4.250;2022-11-24T09:29:32;100723.34;;;11.29;74.21
13593;BME280;6867;50.998;4.250;2022-11-24T09:31:59;100736.50;;;11.43;73.83
13593;BME280;6867;50.998;4.250;2022-11-24T09:34:25;100731.13;;;11.43;73.84
13593;BME280;6867;50.998;4.250;2022-11-24T09:36:53;100746.00;;;11.46;73.66
13593;BME280;6867;50.998;4.250;2022-11-24T09:39:20;100732.06;;;11.62;73.34
13593;BME280;6867;50.998;4.250;2022-11-24T09:42:05;100738.88;;;11.65;73.35
13593;BME280;6867;50.998;4.250;2022-11-24T09:45:00;100742.78;;;11.69;73.27
13593;BME280;6867;50.998;4.250;2022-11-24T09:47:37;100731.38;;;11.73;72.57
13593;BME280;6867;50.998;4.250;2022-11-24T09:50:13;100738.47;;;11.61;72.78
13593;BME280;6867;50.998;4.250;2022-11-24T09:52:51;100746.09;;;11.71;72.75
13593;BME280;6867;50.998;4.250;2022-11-24T09:55:36;100749.13;;;11.88;72.72
13593;BME280;6867;50.998;4.250;2022-11-24T09:58:16;100742.66;;;11.95;72.21
13593;BME280;6867;50.998;4.250;2022-11-24T10:00:44;100738.31;;;11.94;71.74
13593;BME280;6867;50.998;4.250;2022-11-24T10:03:15;100743.94;;;12.18;71.77
13593;BME280;6867;50.998;4.250;2022-11-24T10:05:47;100731.41;;;12.30;71.21
13593;BME280;6867;50.998;4.250;2022-11-24T10:08:26;100723.81;;;12.20;70.85
13593;BME280;6867;50.998;4.250;2022-11-24T10:10:59;100736.97;;;12.35;71.09
13593;BME280;6867;50.998;4.250;2022-11-24T10:13:40;100732.63;;;12.34;70.85
13593;BME280;6867;50.998;4.250;2022-11-24T10:16:21;100736.94;;;12.42;71.11
13593;BME280;6867;50.998;4.250;2022-11-24T10:19:00;100739.25;;;12.57;70.63
13593;BME280;6867;50.998;4.250;2022-11-24T10:21:52;100743.06;;;12.49;70.52
13593;BME280;6867;50.998;4.250;2022-11-24T10:24:51;100750.97;;;12.44;70.92
13593;BME280;6867;50.998;4.250;2022-11-24T10:27:27;100735.25;;;12.41;70.73
13593;BME280;6867;50.998;4.250;2022-11-24T10:29:55;100742.22;;;12.49;70.68
13593;BME280;6867;50.998;4.250;2022-11-24T10:32:24;100744.59;;;12.63;70.46
13593;BME280;6867;50.998;4.250;2022-11-24T10:34:54;100733.28;;;12.55;70.46
13593;BME280;6867;50.998;4.250;2022-11-24T10:37:29;100724.84;;;12.69;69.88
13593;BME280;6867;50.998;4.250;2022-11-24T10:40:07;100727.03;;;12.79;69.28
13593;BME280;6867;50.998;4.250;2022-11-24T10:42:36;100725.59;;;12.77;69.21
13593;BME280;6867;50.998;4.250;2022-11-24T10:45:09;100721.16;;;12.64;68.96
13593;BME280;6867;50.998;4.250;2022-11-24T10:47:37;100715.50;;;12.90;69.12
13593;BME280;6867;50.998;4.250;2022-11-24T10:50:12;100729.59;;;12.92;68.79
13593;BME280;6867;50.998;4.250;2022-11-24T10:52:42;100730.84;;;12.90;69.13
13593;BME280;6867;50.998;4.250;2022-11-24T10:55:12;100735.28;;;13.03;68.92
13593;BME280;6867;50.998;4.250;2022-11-24T10:57:39;100727.03;;;13.16;68.52
13593;BME280;6867;50.998;4.250;2022-11-24T11:00:30;100734.41;;;13.27;68.38
13593;BME280;6867;50.998;4.250;2022-11-24T11:03:17;100731.25;;;13.30;68.51
13593;BME280;6867;50.998;4.250;2022-11-24T11:05:47;100722.09;;;13.31;67.74
13593;BME280;6867;50.998;4.250;2022-11-24T11:08:21;100728.94;;;13.34;67.86
13593;BME280;6867;50.998;4.250;2022-11-24T11:10:51;100726.25;;;13.34;67.82
13593;BME280;6867;50.998;4.250;2022-11-24T11:13:32;100730.44;;;13.30;68.00
13593;BME280;6867;50.998;4.250;2022-11-24T11:15:59;100730.16;;;13.50;67.30
13593;BME280;6867;50.998;4.250;2022-11-24T11:18:29;100723.50;;;13.52;67.35
13593;BME280;6867;50.998;4.250;2022-11-24T11:20:59;100723.72;;;13.51;67.05
13593;BME280;6867;50.998;4.250;2022-11-24T11:23:30;100717.16;;;13.28;67.39
13593;BME280;6867;50.998;4.250;2022-11-24T11:26:17;100737.50;;;13.61;67.56
13593;BME280;6867;50.998;4.250;2022-11-24T11:28:56;100717.28;;;13.52;67.25
13593;BME280;6867;50.998;4.250;2022-11-24T11:31:24;100721.31;;;13.61;66.90
13593;BME280;6867;50.998;4.250;2022-11-24T11:33:56;100713.84;;;13.44;67.11
13593;BME280;6867;50.998;4.250;2022-11-24T11:36:23;100707.63;;;13.44;66.83
13593;BME280;6867;50.998;4.250;2022-11-24T11:38:50;100691.47;;;13.56;66.55
13593;BME280;6867;50.998;4.250;2022-11-24T11:41:21;100710.44;;;13.67;67.21
13593;BME280;6867;50.998;4.250;2022-11-24T11:43:55;100699.88;;;13.78;66.82
13593;BME280;6867;50.998;4.250;2022-11-24T11:46:23;100688.59;;;13.69;66.03
13593;BME280;6867;50.998;4.250;2022-11-24T11:48:54;100695.09;;;13.80;66.15
13593;BME280;6867;50.998;4.250;2022-11-24T11:51:32;100691.91;;;13.71;66.08
13593;BME280;6867;50.998;4.250;2022-11-24T11:54:05;100692.84;;;13.77;66.07
13593;BME280;6867;50.998;4.250;2022-11-24T11:56:37;100703.44;;;13.90;65.63
13593;BME280;6867;50.998;4.250;2022-11-24T12:02:36;100695.44;;;13.83;65.91
13593;BME280;6867;50.998;4.250;2022-11-24T12:05:10;100686.94;;;13.68;65.73
13593;BME280;6867;50.998;4.250;2022-11-24T12:07:50;100704.09;;;13.74;65.94
13593;BME280;6867;50.998;4.250;2022-11-24T12:10:25;100695.31;;;13.78;65.45
13593;BME280;6867;50.998;4.250;2022-11-24T12:13:18;100691.81;;;13.89;65.36
13593;BME280;6867;50.998;4.250;2022-11-24T12:15:54;100691.38;;;13.92;65.63
13593;BME280;6867;50.998;4.250;2022-11-24T12:18:27;100682.44;;;13.62;65.61
13593;BME280;6867;50.998;4.250;2022-11-24T12:21:04;100705.53;;;13.46;66.68
13593;BME280;6867;50.998;4.250;2022-11-24T12:23:42;100691.78;;;13.78;65.19
13593;BME280;6867;50.998;4.250;2022-11-24T12:26:17;100680.25;;;13.40;65.60
13593;BME280;6867;50.998;4.250;2022-11-24T12:28:57;100702.16;;;14.04;65.36
13593;BME280;6867;50.998;4.250;2022-11-24T12:31:34;100703.94;;;14.10;65.77
13593;BME280;6867;50.998;4.250;2022-11-24T12:34:27;100687.66;;;14.40;64.71
13593;BME280;6867;50.998;4.250;2022-11-24T12:37:10;100659.56;;;14.65;63.83
13593;BME280;6867;50.998;4.250;2022-11-24T12:39:44;100678.03;;;14.80;63.63
13593;BME280;6867;50.998;4.250;2022-11-24T12:42:25;100646.41;;;14.68;63.62
13593;BME280;6867;50.998;4.250;2022-11-24T12:45:13;100654.78;;;14.55;63.50
13593;BME280;6867;50.998;4.250;2022-11-24T12:50:40;100630.63;;;14.89;62.32
13593;BME280;6867;50.998;4.250;2022-11-24T12:53:12;100625.47;;;14.76;62.87
13593;BME280;6867;50.998;4.250;2022-11-24T12:55:41;100630.50;;;14.84;62.73
13593;BME280;6867;50.998;4.250;2022-11-24T12:58:13;100612.66;;;14.71;61.87
13593;BME280;6867;50.998;4.250;2022-11-24T13:00:51;100615.59;;;14.69;62.41
13593;BME280;6867;50.998;4.250;2022-11-24T13:03:29;100621.72;;;14.77;62.09
13593;BME280;6867;50.998;4.250;2022-11-24T13:06:02;100638.19;;;14.63;62.75
13593;BME280;6867;50.998;4.250;2022-11-24T13:08:34;100639.31;;;14.79;62.53
13593;BME280;6867;50.998;4.250;2022-11-24T13:14:14;100631.38;;;14.61;62.83
13593;BME280;6867;50.998;4.250;2022-11-24T13:16:54;100606.69;;;14.45;62.42
13593;BME280;6867;50.998;4.250;2022-11-24T13:19:23;100624.78;;;14.45;62.64
13593;BME280;6867;50.998;4.250;2022-11-24T13:22:01;100625.16;;;14.49;62.97
13593;BME280;6867;50.998;4.250;2022-11-24T13:24:30;100622.22;;;14.27;63.05